sensor_id;sensor_type;location;lat;lon;timestamp;pressure;altitude;pressure_sealevel;temperature;humidity
18749;BME280;9503;53.560;10.246;2024-01-15T00:00:14;98564.47;;;4.71;87.12
18749;BME280;9503;53.560;10.246;2024-01-15T00:02:40;98574.34;;;5.61;85.91
18749;BME280;9503;53.560;10.246;2024-01-15T00:05:07;98564.91;;;4.84;87.56
18749;BME280;9503;53.560;10.246;2024-01-15T00:07:35;98553.16;;;5.11;87.18
18749;BME280;9503;53.560;10.246;2024-01-15T00:10:05;98550.53;;;5.34;86.80
18749;BME280;9503;53.560;10.246;2024-01-15T00:12:32;98553.34;;;5.16;85.59
18749;BME280;9503;53.560;10.246;2024-01-15T00:14:58;98536.16;;;5.09;86.77
18749;BME280;9503;53.560;10.246;2024-01-15T00:17:25;98542.31;;;5.66;84.44
18749;BME280;9503;53.560;10.246;2024-01-15T00:19:52;98528.25;;;5.25;84.83
18749;BME280;9503;53.560;10.246;2024-01-15T00:22:18;98527.06;;;5.41;85.00
18749;BME280;9503;53.560;10.246;2024-01-15T00:24:46;98540.72;;;5.70;84.70
18749;BME280;9503;53.560;10.246;2024-01-15T00:27:13;98541.44;;;5.40;83.88
18749;BME280;9503;53.560;10.246;2024-01-15T00:29:39;98537.75;;;5.31;85.41
18749;BME280;9503;53.560;10.246;2024-01-15T00:32:06;98545.03;;;4.48;88.42
18749;BME280;9503;53.560;10.246;2024-01-15T00:34:32;98536.53;;;4.48;91.02
18749;BME280;9503;53.560;10.246;2024-01-15T00:36:59;98540.00;;;4.97;88.82
18749;BME280;9503;53.560;10.246;2024-01-15T00:39:26;98532.06;;;5.38;88.14
18749;BME280;9503;53.560;10.246;2024-01-15T00:41:54;98514.63;;;5.23;86.12
18749;BME280;9503;53.560;10.246;2024-01-15T00:44:20;98501.00;;;4.95;87.28
18749;BME280;9503;53.560;10.246;2024-01-15T00:46:47;98506.59;;;5.36;86.95
18749;BME280;9503;53.560;10.246;2024-01-15T00:49:12;98497.09;;;5.58;86.53
18749;BME280;9503;53.560;10.246;2024-01-15T00:51:39;98491.41;;;4.87;87.23
18749;BME280;9503;53.560;10.246;2024-01-15T00:54:06;98506.69;;;4.88;89.20
18749;BME280;9503;53.560;10.246;2024-01-15T00:56:33;98495.06;;;4.95;88.60
18749;BME280;9503;53.560;10.246;2024-01-15T00:59:01;98491.94;;;5.54;86.60
18749;BME280;9503;53.560;10.246;2024-01-15T01:01:27;98475.06;;;4.79;88.01
18749;BME280;9503;53.560;10.246;2024-01-15T01:03:55;98472.44;;;4.77;88.51
18749;BME280;9503;53.560;10.246;2024-01-15T01:06:24;98475.75;;;5.25;88.53
18749;BME280;9503;53.560;10.246;2024-01-15T01:08:51;98474.38;;;5.35;87.69
18749;BME280;9503;53.560;10.246;2024-01-15T01:11:17;98453.25;;;4.36;89.83
18749;BME280;9503;53.560;10.246;2024-01-15T01:13:44;98449.41;;;4.71;88.78
18749;BME280;9503;53.560;10.246;2024-01-15T01:16:12;98450.81;;;4.63;91.02
18749;BME280;9503;53.560;10.246;2024-01-15T01:18:38;98443.53;;;4.72;91.09
18749;BME280;9503;53.560;10.246;2024-01-15T01:21:05;98443.22;;;4.88;88.68
18749;BME280;9503;53.560;10.246;2024-01-15T01:23:32;98429.28;;;4.52;89.37
18749;BME280;9503;53.560;10.246;2024-01-15T01:25:58;98425.16;;;4.55;90.05
18749;BME280;9503;53.560;10.246;2024-01-15T01:28:25;98428.63;;;4.83;90.75
18749;BME280;9503;53.560;10.246;2024-01-15T01:30:51;98423.69;;;4.62;90.11
18749;BME280;9503;53.560;10.246;2024-01-15T01:33:19;98425.16;;;4.55;89.74
18749;BME280;9503;53.560;10.246;2024-01-15T01:35:46;98426.22;;;5.13;87.92
18749;BME280;9503;53.560;10.246;2024-01-15T01:38:13;98423.63;;;5.65;85.94
18749;BME280;9503;53.560;10.246;2024-01-15T01:40:39;98420.50;;;5.45;84.25
18749;BME280;9503;53.560;10.246;2024-01-15T01:43:06;98426.69;;;5.53;84.85
18749;BME280;9503;53.560;10.246;2024-01-15T01:45:32;98426.59;;;4.98;85.95
18749;BME280;9503;53.560;10.246;2024-01-15T01:48:00;98413.97;;;4.99;86.70
18749;BME280;9503;53.560;10.246;2024-01-15T01:50:28;98423.41;;;5.04;89.90
18749;BME280;9503;53.560;10.246;2024-01-15T01:52:56;98429.38;;;4.79;88.45
18749;BME280;9503;53.560;10.246;2024-01-15T01:55:26;98438.88;;;5.65;85.46
18749;BME280;9503;53.560;10.246;2024-01-15T01:57:54;98418.53;;;5.10;86.59
18749;BME280;9503;53.560;10.246;2024-01-15T02:00:22;98424.75;;;5.19;86.40
18749;BME280;9503;53.560;10.246;2024-01-15T02:02:49;98417.84;;;5.69;85.67
18749;BME280;9503;53.560;10.246;2024-01-15T02:05:18;98413.13;;;5.26;85.35
18749;BME280;9503;53.560;10.246;2024-01-15T02:07:49;98415.47;;;5.75;85.79
18749;BME280;9503;53.560;10.246;2024-01-15T02:10:16;98416.13;;;6.27;83.21
18749;BME280;9503;53.560;10.246;2024-01-15T02:12:43;98413.72;;;6.63;82.14
18749;BME280;9503;53.560;10.246;2024-01-15T02:15:10;98433.53;;;6.12;82.98
18749;BME280;9503;53.560;10.246;2024-01-15T02:17:58;98429.28;;;6.12;83.58
18749;BME280;9503;53.560;10.246;2024-01-15T02:20:24;98426.50;;;5.47;85.55
18749;BME280;9503;53.560;10.246;2024-01-15T02:22:53;98422.41;;;5.52;86.59
18749;BME280;9503;53.560;10.246;2024-01-15T02:25:21;98413.06;;;5.24;86.31
18749;BME280;9503;53.560;10.246;2024-01-15T02:27:47;98419.44;;;5.12;87.81
18749;BME280;9503;53.560;10.246;2024-01-15T02:30:15;98423.28;;;5.81;86.46
18749;BME280;9503;53.560;10.246;2024-01-15T02:32:42;98422.00;;;5.39;87.92
18749;BME280;9503;53.560;10.246;2024-01-15T02:35:08;98420.00;;;5.03;88.28
18749;BME280;9503;53.560;10.246;2024-01-15T02:37:35;98419.72;;;5.48;86.64
18749;BME280;9503;53.560;10.246;2024-01-15T02:40:02;98406.88;;;5.43;87.09
18749;BME280;9503;53.560;10.246;2024-01-15T02:42:30;98407.00;;;5.75;86.44
18749;BME280;9503;53.560;10.246;2024-01-15T02:44:57;98409.41;;;5.15;86.46
18749;BME280;9503;53.560;10.246;2024-01-15T02:47:23;98423.47;;;5.59;86.32
18749;BME280;9503;53.560;10.246;2024-01-15T02:49:50;98405.59;;;5.29;86.11
18749;BME280;9503;53.560;10.246;2024-01-15T02:52:17;98394.72;;;5.62;84.81
18749;BME280;9503;53.560;10.246;2024-01-15T02:54:44;98381.16;;;5.61;86.10
18749;BME280;9503;53.560;10.246;2024-01-15T02:57:10;98388.84;;;5.91;84.87
18749;BME280;9503;53.560;10.246;2024-01-15T02:59:38;98391.38;;;5.91;84.51
18749;BME280;9503;53.560;10.246;2024-01-15T03:02:05;98383.03;;;6.25;84.12
18749;BME280;9503;53.560;10.246;2024-01-15T03:04:31;98390.16;;;5.80;85.02
18749;BME280;9503;53.560;10.246;2024-01-15T03:06:58;98394.91;;;5.12;86.68
18749;BME280;9503;53.560;10.246;2024-01-15T03:09:24;98402.41;;;5.92;85.69
18749;BME280;9503;53.560;10.246;2024-01-15T03:11:51;98398.47;;;5.73;86.97
18749;BME280;9503;53.560;10.246;2024-01-15T03:14:18;98396.63;;;5.40;86.03
18749;BME280;9503;53.560;10.246;2024-01-15T03:16:47;98405.94;;;6.25;83.82
18749;BME280;9503;53.560;10.246;2024-01-15T03:19:13;98413.44;;;6.22;84.13
18749;BME280;9503;53.560;10.246;2024-01-15T03:21:40;98421.34;;;5.73;85.41
18749;BME280;9503;53.560;10.246;2024-01-15T03:24:06;98414.06;;;5.57;86.67
18749;BME280;9503;53.560;10.246;2024-01-15T03:26:33;98412.81;;;5.99;86.56
18749;BME280;9503;53.560;10.246;2024-01-15T03:28:59;98417.84;;;6.28;84.65
18749;BME280;9503;53.560;10.246;2024-01-15T03:31:26;98416.56;;;6.42;83.48
18749;BME280;9503;53.560;10.246;2024-01-15T03:33:54;98417.00;;;6.59;82.26
18749;BME280;9503;53.560;10.246;2024-01-15T03:36:20;98423.59;;;6.21;83.76
18749;BME280;9503;53.560;10.246;2024-01-15T03:38:47;98432.00;;;6.48;82.20
18749;BME280;9503;53.560;10.246;2024-01-15T03:41:17;98435.78;;;6.62;82.13
18749;BME280;9503;53.560;10.246;2024-01-15T03:43:43;98434.38;;;6.42;82.49
18749;BME280;9503;53.560;10.246;2024-01-15T03:46:10;98431.72;;;5.52;85.01
18749;BME280;9503;53.560;10.246;2024-01-15T03:48:36;98432.69;;;6.13;83.74
18749;BME280;9503;53.560;10.246;2024-01-15T03:51:05;98430.66;;;6.01;84.62
18749;BME280;9503;53.560;10.246;2024-01-15T03:53:31;98434.56;;;5.90;84.14
18749;BME280;9503;53.560;10.246;2024-01-15T03:55:58;98433.25;;;5.47;86.06
18749;BME280;9503;53.560;10.246;2024-01-15T03:58:24;98429.91;;;6.33;84.51
18749;BME280;9503;53.560;10.246;2024-01-15T04:00:51;98436.22;;;5.61;85.75
18749;BME280;9503;53.560;10.246;2024-01-15T04:03:17;98439.22;;;6.03;82.88
18749;BME280;9503;53.560;10.246;2024-01-15T04:05:44;98433.88;;;5.67;84.90
18749;BME280;9503;53.560;10.246;2024-01-15T04:08:12;98440.81;;;6.01;84.81
18749;BME280;9503;53.560;10.246;2024-01-15T04:10:38;98432.53;;;5.79;85.00
18749;BME280;9503;53.560;10.246;2024-01-15T04:13:05;98430.66;;;6.01;84.01
18749;BME280;9503;53.560;10.246;2024-01-15T04:15:32;98425.50;;;5.71;83.56
18749;BME280;9503;53.560;10.246;2024-01-15T04:17:58;98436.63;;;5.74;85.64
18749;BME280;9503;53.560;10.246;2024-01-15T04:20:26;98433.31;;;6.04;83.17
18749;BME280;9503;53.560;10.246;2024-01-15T04:22:53;98421.13;;;6.54;82.34
18749;BME280;9503;53.560;10.246;2024-01-15T04:25:20;98425.25;;;5.35;84.41
18749;BME280;9503;53.560;10.246;2024-01-15T04:27:47;98431.19;;;6.19;83.16
18749;BME280;9503;53.560;10.246;2024-01-15T04:30:14;98429.41;;;6.17;81.76
18749;BME280;9503;53.560;10.246;2024-01-15T04:32:40;98440.72;;;6.26;82.18
18749;BME280;9503;53.560;10.246;2024-01-15T04:35:07;98434.50;;;5.88;82.33
18749;BME280;9503;53.560;10.246;2024-01-15T04:37:33;98442.94;;;6.16;81.29
18749;BME280;9503;53.560;10.246;2024-01-15T04:40:00;98437.94;;;6.17;80.66
18749;BME280;9503;53.560;10.246;2024-01-15T04:42:30;98433.72;;;6.19;80.51
18749;BME280;9503;53.560;10.246;2024-01-15T04:44:57;98437.59;;;6.06;81.12
18749;BME280;9503;53.560;10.246;2024-01-15T04:47:23;98431.84;;;6.44;79.33
18749;BME280;9503;53.560;10.246;2024-01-15T04:49:50;98449.31;;;6.31;79.71
18749;BME280;9503;53.560;10.246;2024-01-15T04:52:17;98441.41;;;6.52;80.67
18749;BME280;9503;53.560;10.246;2024-01-15T04:54:43;98441.34;;;6.18;80.38
18749;BME280;9503;53.560;10.246;2024-01-15T04:57:10;98437.63;;;6.38;79.88
18749;BME280;9503;53.560;10.246;2024-01-15T04:59:38;98444.84;;;6.23;81.16
18749;BME280;9503;53.560;10.246;2024-01-15T05:02:05;98442.88;;;5.86;80.67
18749;BME280;9503;53.560;10.246;2024-01-15T05:04:32;98438.69;;;6.15;81.46
18749;BME280;9503;53.560;10.246;2024-01-15T05:06:59;98440.69;;;6.25;80.52
18749;BME280;9503;53.560;10.246;2024-01-15T05:09:25;98438.81;;;6.19;80.80
18749;BME280;9503;53.560;10.246;2024-01-15T05:11:52;98443.78;;;6.46;79.90
18749;BME280;9503;53.560;10.246;2024-01-15T05:14:18;98447.56;;;5.99;81.58
18749;BME280;9503;53.560;10.246;2024-01-15T05:16:48;98447.22;;;5.88;82.60
18749;BME280;9503;53.560;10.246;2024-01-15T05:19:15;98450.47;;;5.84;83.70
18749;BME280;9503;53.560;10.246;2024-01-15T05:21:41;98452.16;;;5.83;82.70
18749;BME280;9503;53.560;10.246;2024-01-15T05:24:08;98453.06;;;5.86;83.22
18749;BME280;9503;53.560;10.246;2024-01-15T05:26:35;98450.03;;;5.69;81.83
18749;BME280;9503;53.560;10.246;2024-01-15T05:29:01;98456.03;;;5.99;81.36
18749;BME280;9503;53.560;10.246;2024-01-15T05:31:28;98461.00;;;5.41;84.31
18749;BME280;9503;53.560;10.246;2024-01-15T05:33:56;98458.28;;;6.47;80.68
18749;BME280;9503;53.560;10.246;2024-01-15T05:36:22;98452.47;;;5.66;82.15
18749;BME280;9503;53.560;10.246;2024-01-15T05:38:49;98454.25;;;5.68;83.62
18749;BME280;9503;53.560;10.246;2024-01-15T05:41:16;98458.94;;;5.83;82.47
18749;BME280;9503;53.560;10.246;2024-01-15T05:43:42;98458.75;;;5.77;82.12
18749;BME280;9503;53.560;10.246;2024-01-15T05:46:09;98457.44;;;5.63;82.83
18749;BME280;9503;53.560;10.246;2024-01-15T05:48:35;98460.22;;;5.70;83.35
18749;BME280;9503;53.560;10.246;2024-01-15T05:51:04;98461.72;;;5.91;83.15
18749;BME280;9503;53.560;10.246;2024-01-15T05:53:30;98460.47;;;6.35;82.12
18749;BME280;9503;53.560;10.246;2024-01-15T05:55:57;98454.94;;;5.64;83.18
18749;BME280;9503;53.560;10.246;2024-01-15T05:58:23;98455.19;;;5.99;82.64
18749;BME280;9503;53.560;10.246;2024-01-15T06:00:50;98449.09;;;6.24;81.26
18749;BME280;9503;53.560;10.246;2024-01-15T06:03:16;98454.56;;;6.36;81.21
18749;BME280;9503;53.560;10.246;2024-01-15T06:05:43;98462.09;;;6.63;80.37
18749;BME280;9503;53.560;10.246;2024-01-15T06:08:11;98461.66;;;5.89;82.40
18749;BME280;9503;53.560;10.246;2024-01-15T06:10:39;98460.81;;;6.17;81.97
18749;BME280;9503;53.560;10.246;2024-01-15T06:13:06;98471.13;;;5.93;82.64
18749;BME280;9503;53.560;10.246;2024-01-15T06:15:33;98471.91;;;5.65;83.45
18749;BME280;9503;53.560;10.246;2024-01-15T06:17:59;98474.97;;;6.09;82.05
18749;BME280;9503;53.560;10.246;2024-01-15T06:20:26;98473.53;;;6.47;80.73
18749;BME280;9503;53.560;10.246;2024-01-15T06:22:55;98464.78;;;6.09;80.68
18749;BME280;9503;53.560;10.246;2024-01-15T06:25:23;98469.88;;;5.53;84.20
18749;BME280;9503;53.560;10.246;2024-01-15T06:27:49;98471.28;;;5.44;84.33
18749;BME280;9503;53.560;10.246;2024-01-15T06:30:16;98466.03;;;5.93;82.08
18749;BME280;9503;53.560;10.246;2024-01-15T06:32:43;98461.75;;;6.21;82.30
18749;BME280;9503;53.560;10.246;2024-01-15T06:35:09;98472.81;;;5.93;82.73
18749;BME280;9503;53.560;10.246;2024-01-15T06:37:37;98467.56;;;5.88;83.63
18749;BME280;9503;53.560;10.246;2024-01-15T06:40:07;98464.25;;;5.64;82.89
18749;BME280;9503;53.560;10.246;2024-01-15T06:42:35;98461.28;;;5.77;83.38
18749;BME280;9503;53.560;10.246;2024-01-15T06:45:02;98461.63;;;5.88;82.76
18749;BME280;9503;53.560;10.246;2024-01-15T06:47:29;98467.31;;;6.07;82.76
18749;BME280;9503;53.560;10.246;2024-01-15T06:49:57;98462.66;;;5.66;82.92
18749;BME280;9503;53.560;10.246;2024-01-15T06:52:24;98472.53;;;6.42;81.74
18749;BME280;9503;53.560;10.246;2024-01-15T06:54:50;98473.63;;;6.20;81.15
18749;BME280;9503;53.560;10.246;2024-01-15T06:57:16;98470.75;;;6.09;81.53
18749;BME280;9503;53.560;10.246;2024-01-15T06:59:46;98473.84;;;5.99;81.17
18749;BME280;9503;53.560;10.246;2024-01-15T07:02:13;98483.31;;;5.76;84.42
18749;BME280;9503;53.560;10.246;2024-01-15T07:04:39;98474.19;;;6.10;82.72
18749;BME280;9503;53.560;10.246;2024-01-15T07:07:06;98472.31;;;6.34;81.02
18749;BME280;9503;53.560;10.246;2024-01-15T07:09:32;98464.94;;;6.14;81.75
18749;BME280;9503;53.560;10.246;2024-01-15T07:11:59;98484.06;;;6.61;79.62
18749;BME280;9503;53.560;10.246;2024-01-15T07:14:26;98486.47;;;6.55;79.37
18749;BME280;9503;53.560;10.246;2024-01-15T07:16:54;98475.06;;;6.41;79.28
18749;BME280;9503;53.560;10.246;2024-01-15T07:19:20;98487.66;;;6.07;80.97
18749;BME280;9503;53.560;10.246;2024-01-15T07:21:47;98485.25;;;6.42;79.86
18749;BME280;9503;53.560;10.246;2024-01-15T07:24:13;98490.38;;;6.14;79.58
18749;BME280;9503;53.560;10.246;2024-01-15T07:26:40;98487.16;;;6.49;78.44
18749;BME280;9503;53.560;10.246;2024-01-15T07:29:07;98488.66;;;6.13;79.36
18749;BME280;9503;53.560;10.246;2024-01-15T07:31:33;98502.59;;;6.25;78.99
18749;BME280;9503;53.560;10.246;2024-01-15T07:34:01;98497.75;;;6.33;78.77
18749;BME280;9503;53.560;10.246;2024-01-15T07:36:28;98501.94;;;6.02;78.40
18749;BME280;9503;53.560;10.246;2024-01-15T07:38:55;98503.53;;;6.29;77.67
18749;BME280;9503;53.560;10.246;2024-01-15T07:41:22;98509.38;;;6.55;79.07
18749;BME280;9503;53.560;10.246;2024-01-15T07:43:48;98512.25;;;6.37;78.30
18749;BME280;9503;53.560;10.246;2024-01-15T07:46:15;98515.41;;;6.90;76.21
18749;BME280;9503;53.560;10.246;2024-01-15T07:48:42;98515.19;;;6.51;77.66
18749;BME280;9503;53.560;10.246;2024-01-15T07:51:10;98510.25;;;6.55;76.36
18749;BME280;9503;53.560;10.246;2024-01-15T07:53:36;98510.09;;;6.81;76.52
18749;BME280;9503;53.560;10.246;2024-01-15T07:56:03;98512.41;;;6.42;76.94
18749;BME280;9503;53.560;10.246;2024-01-15T07:58:30;98516.16;;;6.54;76.33
18749;BME280;9503;53.560;10.246;2024-01-15T08:00:57;98522.88;;;6.24;76.76
18749;BME280;9503;53.560;10.246;2024-01-15T08:03:23;98519.53;;;6.85;75.99
18749;BME280;9503;53.560;10.246;2024-01-15T08:05:50;98510.41;;;6.93;74.88
18749;BME280;9503;53.560;10.246;2024-01-15T08:08:19;98512.72;;;7.17;73.46
18749;BME280;9503;53.560;10.246;2024-01-15T08:10:48;98513.06;;;6.98;73.77
18749;BME280;9503;53.560;10.246;2024-01-15T08:13:15;98518.09;;;6.33;75.72
18749;BME280;9503;53.560;10.246;2024-01-15T08:15:41;98513.41;;;6.47;75.14
18749;BME280;9503;53.560;10.246;2024-01-15T08:18:09;98516.31;;;6.60;74.88
18749;BME280;9503;53.560;10.246;2024-01-15T08:20:36;98508.78;;;6.63;73.83
18749;BME280;9503;53.560;10.246;2024-01-15T08:23:02;98515.34;;;6.87;74.01
18749;BME280;9503;53.560;10.246;2024-01-15T08:25:30;98521.13;;;6.50;75.14
18749;BME280;9503;53.560;10.246;2024-01-15T08:27:57;98529.13;;;7.27;72.54
18749;BME280;9503;53.560;10.246;2024-01-15T08:30:24;98502.50;;;6.52;74.10
18749;BME280;9503;53.560;10.246;2024-01-15T08:32:53;98520.81;;;6.69;74.91
18749;BME280;9503;53.560;10.246;2024-01-15T08:35:19;98529.91;;;6.91;74.71
18749;BME280;9503;53.560;10.246;2024-01-15T08:37:48;98527.25;;;6.88;73.82
18749;BME280;9503;53.560;10.246;2024-01-15T08:40:15;98534.94;;;6.29;75.22
18749;BME280;9503;53.560;10.246;2024-01-15T08:42:43;98534.72;;;6.52;75.09
18749;BME280;9503;53.560;10.246;2024-01-15T08:45:10;98533.56;;;6.69;74.99
18749;BME280;9503;53.560;10.246;2024-01-15T08:47:37;98529.84;;;6.29;76.92
18749;BME280;9503;53.560;10.246;2024-01-15T08:50:05;98535.38;;;6.75;75.46
18749;BME280;9503;53.560;10.246;2024-01-15T08:52:34;98549.88;;;6.76;75.01
18749;BME280;9503;53.560;10.246;2024-01-15T08:55:01;98552.72;;;6.28;77.62
18749;BME280;9503;53.560;10.246;2024-01-15T08:57:29;98556.06;;;6.27;78.56
18749;BME280;9503;53.560;10.246;2024-01-15T08:59:57;98551.38;;;6.39;78.14
18749;BME280;9503;53.560;10.246;2024-01-15T09:02:24;98561.13;;;6.25;79.78
18749;BME280;9503;53.560;10.246;2024-01-15T09:04:50;98553.91;;;6.39;78.02
18749;BME280;9503;53.560;10.246;2024-01-15T09:07:17;98559.50;;;6.87;77.81
18749;BME280;9503;53.560;10.246;2024-01-15T09:09:44;98559.59;;;6.60;78.17
18749;BME280;9503;53.560;10.246;2024-01-15T09:12:11;98568.59;;;6.21;79.60
18749;BME280;9503;53.560;10.246;2024-01-15T09:14:40;98573.94;;;6.57;78.70
18749;BME280;9503;53.560;10.246;2024-01-15T09:17:08;98570.84;;;5.85;79.23
18749;BME280;9503;53.560;10.246;2024-01-15T09:19:35;98569.88;;;6.35;79.26
18749;BME280;9503;53.560;10.246;2024-01-15T09:22:02;98575.75;;;6.32;79.84
18749;BME280;9503;53.560;10.246;2024-01-15T09:24:28;98581.91;;;5.60;82.10
18749;BME280;9503;53.560;10.246;2024-01-15T09:26:55;98582.63;;;5.30;84.37
18749;BME280;9503;53.560;10.246;2024-01-15T09:29:21;98588.84;;;5.65;83.42
18749;BME280;9503;53.560;10.246;2024-01-15T09:31:48;98585.84;;;5.26;84.72
18749;BME280;9503;53.560;10.246;2024-01-15T09:34:17;98601.78;;;5.97;82.47
18749;BME280;9503;53.560;10.246;2024-01-15T09:36:43;98595.25;;;5.79;84.49
18749;BME280;9503;53.560;10.246;2024-01-15T09:39:10;98592.59;;;6.02;83.50
18749;BME280;9503;53.560;10.246;2024-01-15T09:41:37;98594.91;;;5.69;84.03
18749;BME280;9503;53.560;10.246;2024-01-15T09:44:04;98595.94;;;5.99;84.14
18749;BME280;9503;53.560;10.246;2024-01-15T09:46:33;98591.81;;;6.31;82.63
18749;BME280;9503;53.560;10.246;2024-01-15T09:49:01;98607.31;;;6.11;83.57
18749;BME280;9503;53.560;10.246;2024-01-15T09:51:31;98603.66;;;6.02;84.73
18749;BME280;9503;53.560;10.246;2024-01-15T09:53:58;98609.41;;;5.97;84.27
18749;BME280;9503;53.560;10.246;2024-01-15T09:56:24;98616.75;;;5.64;85.39
18749;BME280;9503;53.560;10.246;2024-01-15T09:58:51;98620.38;;;5.70;84.48
18749;BME280;9503;53.560;10.246;2024-01-15T10:01:20;98627.25;;;5.98;84.27
18749;BME280;9503;53.560;10.246;2024-01-15T10:03:46;98625.41;;;6.47;83.47
18749;BME280;9503;53.560;10.246;2024-01-15T10:06:15;98636.91;;;6.35;83.04
18749;BME280;9503;53.560;10.246;2024-01-15T10:08:48;98634.13;;;6.55;81.29
18749;BME280;9503;53.560;10.246;2024-01-15T10:11:14;98642.81;;;6.61;80.81
18749;BME280;9503;53.560;10.246;2024-01-15T10:13:43;98636.22;;;6.40;81.23
18749;BME280;9503;53.560;10.246;2024-01-15T10:16:09;98633.50;;;5.82;82.13
18749;BME280;9503;53.560;10.246;2024-01-15T10:18:36;98647.59;;;6.52;81.62
18749;BME280;9503;53.560;10.246;2024-01-15T10:21:06;98636.94;;;6.37;80.71
18749;BME280;9503;53.560;10.246;2024-01-15T10:23:32;98647.91;;;6.07;82.35
18749;BME280;9503;53.560;10.246;2024-01-15T10:26:01;98653.88;;;6.09;82.17
18749;BME280;9503;53.560;10.246;2024-01-15T10:28:29;98661.81;;;6.17;81.92
18749;BME280;9503;53.560;10.246;2024-01-15T10:30:58;98653.34;;;5.93;82.51
18749;BME280;9503;53.560;10.246;2024-01-15T10:33:26;98653.28;;;6.17;81.88
18749;BME280;9503;53.560;10.246;2024-01-15T10:35:53;98655.72;;;6.14;81.28
18749;BME280;9503;53.560;10.246;2024-01-15T10:38:20;98657.69;;;5.95;81.39
18749;BME280;9503;53.560;10.246;2024-01-15T10:40:48;98665.72;;;6.61;80.47
18749;BME280;9503;53.560;10.246;2024-01-15T10:43:18;98669.66;;;6.25;81.12
18749;BME280;9503;53.560;10.246;2024-01-15T10:45:45;98670.06;;;6.94;79.42
18749;BME280;9503;53.560;10.246;2024-01-15T10:48:12;98680.38;;;7.27;77.90
18749;BME280;9503;53.560;10.246;2024-01-15T10:50:39;98682.56;;;7.15;78.74
18749;BME280;9503;53.560;10.246;2024-01-15T10:53:05;98683.84;;;7.01;77.92
18749;BME280;9503;53.560;10.246;2024-01-15T10:55:33;98687.22;;;7.00;78.51
18749;BME280;9503;53.560;10.246;2024-01-15T10:58:00;98685.63;;;6.75;78.97
18749;BME280;9503;53.560;10.246;2024-01-15T11:00:28;98696.28;;;6.61;79.86
18749;BME280;9503;53.560;10.246;2024-01-15T11:02:55;98688.78;;;7.25;79.18
18749;BME280;9503;53.560;10.246;2024-01-15T11:05:22;98685.72;;;6.78;78.64
18749;BME280;9503;53.560;10.246;2024-01-15T11:07:48;98684.63;;;6.70;79.37
18749;BME280;9503;53.560;10.246;2024-01-15T11:10:39;98687.31;;;7.03;79.36
18749;BME280;9503;53.560;10.246;2024-01-15T11:13:08;98691.06;;;6.58;79.40
18749;BME280;9503;53.560;10.246;2024-01-15T11:16:01;98687.69;;;6.86;79.28
18749;BME280;9503;53.560;10.246;2024-01-15T11:18:29;98685.00;;;7.12;79.74
18749;BME280;9503;53.560;10.246;2024-01-15T11:21:24;98686.09;;;6.34;80.79
18749;BME280;9503;53.560;10.246;2024-01-15T11:23:54;98687.81;;;6.91;80.85
18749;BME280;9503;53.560;10.246;2024-01-15T11:26:30;98690.34;;;6.35;81.42
18749;BME280;9503;53.560;10.246;2024-01-15T11:28:57;98685.84;;;6.27;81.47
18749;BME280;9503;53.560;10.246;2024-01-15T11:31:56;98686.72;;;6.54;80.74
18749;BME280;9503;53.560;10.246;2024-01-15T11:34:50;98685.31;;;6.37;81.39
18749;BME280;9503;53.560;10.246;2024-01-15T11:37:17;98690.50;;;6.40;82.00
18749;BME280;9503;53.560;10.246;2024-01-15T11:39:44;98690.94;;;6.82;81.61
18749;BME280;9503;53.560;10.246;2024-01-15T11:42:11;98683.13;;;6.22;81.70
18749;BME280;9503;53.560;10.246;2024-01-15T11:44:38;98692.44;;;6.47;81.99
18749;BME280;9503;53.560;10.246;2024-01-15T11:47:07;98691.09;;;6.60;80.82
18749;BME280;9503;53.560;10.246;2024-01-15T11:49:53;98698.53;;;6.81;80.80
18749;BME280;9503;53.560;10.246;2024-01-15T11:52:23;98694.06;;;6.74;80.36
18749;BME280;9503;53.560;10.246;2024-01-15T11:54:55;98698.84;;;6.63;81.43
18749;BME280;9503;53.560;10.246;2024-01-15T11:57:37;98693.91;;;7.26;79.99
18749;BME280;9503;53.560;10.246;2024-01-15T12:00:08;98703.66;;;6.82;79.66
18749;BME280;9503;53.560;10.246;2024-01-15T12:02:36;98697.06;;;7.17;79.18
18749;BME280;9503;53.560;10.246;2024-01-15T12:05:05;98695.97;;;7.71;78.67
18749;BME280;9503;53.560;10.246;2024-01-15T12:07:32;98706.63;;;7.56;77.50
18749;BME280;9503;53.560;10.246;2024-01-15T12:09:59;98702.50;;;7.93;77.20
18749;BME280;9503;53.560;10.246;2024-01-15T12:12:32;98700.75;;;8.23;75.59
18749;BME280;9503;53.560;10.246;2024-01-15T12:15:01;98705.38;;;8.05;75.03
18749;BME280;9503;53.560;10.246;2024-01-15T12:17:29;98705.25;;;8.00;77.41
18749;BME280;9503;53.560;10.246;2024-01-15T12:19:57;98709.31;;;8.27;75.18
18749;BME280;9503;53.560;10.246;2024-01-15T12:22:24;98715.06;;;8.18;75.50
18749;BME280;9503;53.560;10.246;2024-01-15T12:24:51;98718.28;;;7.78;75.43
18749;BME280;9503;53.560;10.246;2024-01-15T12:27:18;98721.19;;;7.92;75.88
18749;BME280;9503;53.560;10.246;2024-01-15T12:29:44;98727.34;;;7.67;76.05
18749;BME280;9503;53.560;10.246;2024-01-15T12:32:12;98725.69;;;7.09;77.68
18749;BME280;9503;53.560;10.246;2024-01-15T12:34:38;98721.78;;;7.82;76.20
18749;BME280;9503;53.560;10.246;2024-01-15T12:37:08;98728.94;;;7.33;76.24
18749;BME280;9503;53.560;10.246;2024-01-15T12:39:34;98733.16;;;7.03;77.25
18749;BME280;9503;53.560;10.246;2024-01-15T12:42:01;98736.81;;;7.41;77.33
18749;BME280;9503;53.560;10.246;2024-01-15T12:44:31;98735.66;;;7.60;75.75
18749;BME280;9503;53.560;10.246;2024-01-15T12:46:58;98744.50;;;7.72;74.94
18749;BME280;9503;53.560;10.246;2024-01-15T12:49:25;98752.06;;;7.69;73.65
18749;BME280;9503;53.560;10.246;2024-01-15T12:51:52;98757.63;;;6.98;75.92
18749;BME280;9503;53.560;10.246;2024-01-15T12:54:20;98750.69;;;7.20;76.12
18749;BME280;9503;53.560;10.246;2024-01-15T12:56:47;98753.94;;;6.61;77.23
18749;BME280;9503;53.560;10.246;2024-01-15T12:59:14;98754.91;;;6.91;76.24
18749;BME280;9503;53.560;10.246;2024-01-15T13:01:40;98769.59;;;7.57;75.35
18749;BME280;9503;53.560;10.246;2024-01-15T13:04:07;98756.94;;;7.32;75.24
18749;BME280;9503;53.560;10.246;2024-01-15T13:06:34;98755.47;;;7.70;74.58
18749;BME280;9503;53.560;10.246;2024-01-15T13:09:02;98764.38;;;7.24;76.04
18749;BME280;9503;53.560;10.246;2024-01-15T13:11:31;98757.53;;;6.95;76.76